sensor_id;sensor_type;location;lat;lon;timestamp;temperature;humidity
52036;DHT22;38046;49.448;32.074;2022-07-23T00:00:06;20.90;80.50
52036;DHT22;38046;49.448;32.074;2022-07-23T00:02:31;20.80;80.50
52036;DHT22;38046;49.448;32.074;2022-07-23T00:04:57;20.80;80.60
52036;DHT22;38046;49.448;32.074;2022-07-23T00:07:23;20.80;80.50
52036;DHT22;38046;49.448;32.074;2022-07-23T00:09:48;20.80;80.50
52036;DHT22;38046;49.448;32.074;2022-07-23T00:12:14;20.80;80.50
52036;DHT22;38046;49.448;32.074;2022-07-23T00:14:39;20.80;80.50
52036;DHT22;38046;49.448;32.074;2022-07-23T00:17:05;20.80;80.70
52036;DHT22;38046;49.448;32.074;2022-07-23T00:19:31;20.80;80.60
52036;DHT22;38046;49.448;32.074;2022-07-23T00:21:57;20.80;80.70
52036;DHT22;38046;49.448;32.074;2022-07-23T00:24:22;20.80;80.90
52036;DHT22;38046;49.448;32.074;2022-07-23T00:26:48;20.80;81.00
52036;DHT22;38046;49.448;32.074;2022-07-23T00:29:14;20.70;81.20
52036;DHT22;38046;49.448;32.074;2022-07-23T00:31:39;20.80;81.30
52036;DHT22;38046;49.448;32.074;2022-07-23T00:34:05;20.70;81.40
52036;DHT22;38046;49.448;32.074;2022-07-23T00:36:31;20.70;81.50
52036;DHT22;38046;49.448;32.074;2022-07-23T00:38:56;20.70;81.50
52036;DHT22;38046;49.448;32.074;2022-07-23T00:41:22;20.70;81.20
52036;DHT22;38046;49.448;32.074;2022-07-23T00:43:48;20.70;81.50
52036;DHT22;38046;49.448;32.074;2022-07-23T00:46:19;20.70;81.70
52036;DHT22;38046;49.448;32.074;2022-07-23T00:48:45;20.60;81.70
52036;DHT22;38046;49.448;32.074;2022-07-23T00:51:11;20.60;81.80
52036;DHT22;38046;49.448;32.074;2022-07-23T00:53:36;20.60;81.90
52036;DHT22;38046;49.448;32.074;2022-07-23T00:56:02;20.60;81.90
52036;DHT22;38046;49.448;32.074;2022-07-23T00:58:28;20.60;81.90
52036;DHT22;38046;49.448;32.074;2022-07-23T01:00:54;20.50;81.90
52036;DHT22;38046;49.448;32.074;2022-07-23T01:03:20;20.50;81.90
52036;DHT22;38046;49.448;32.074;2022-07-23T01:05:46;20.50;82.00
52036;DHT22;38046;49.448;32.074;2022-07-23T01:08:12;20.50;82.00
52036;DHT22;38046;49.448;32.074;2022-07-23T01:10:38;20.60;82.20
52036;DHT22;38046;49.448;32.074;2022-07-23T01:13:05;20.50;82.50
52036;DHT22;38046;49.448;32.074;2022-07-23T01:15:33;20.50;82.20
52036;DHT22;38046;49.448;32.074;2022-07-23T01:17:59;20.50;82.50
52036;DHT22;38046;49.448;32.074;2022-07-23T01:20:25;20.50;82.50
52036;DHT22;38046;49.448;32.074;2022-07-23T01:22:52;20.50;82.60
52036;DHT22;38046;49.448;32.074;2022-07-23T01:25:19;20.50;82.70
52036;DHT22;38046;49.448;32.074;2022-07-23T01:27:45;20.50;82.70
52036;DHT22;38046;49.448;32.074;2022-07-23T01:30:12;20.50;82.70
52036;DHT22;38046;49.448;32.074;2022-07-23T01:32:38;20.50;83.00
52036;DHT22;38046;49.448;32.074;2022-07-23T01:35:04;20.50;83.00
52036;DHT22;38046;49.448;32.074;2022-07-23T01:37:30;20.50;83.10
52036;DHT22;38046;49.448;32.074;2022-07-23T01:39:55;20.50;83.10
52036;DHT22;38046;49.448;32.074;2022-07-23T01:42:21;20.50;83.20
52036;DHT22;38046;49.448;32.074;2022-07-23T01:44:47;20.50;83.30
52036;DHT22;38046;49.448;32.074;2022-07-23T01:47:13;20.50;83.30
52036;DHT22;38046;49.448;32.074;2022-07-23T01:49:38;20.40;83.40
52036;DHT22;38046;49.448;32.074;2022-07-23T01:52:04;20.40;83.50
52036;DHT22;38046;49.448;32.074;2022-07-23T01:54:34;20.40;83.50
52036;DHT22;38046;49.448;32.074;2022-07-23T01:57:00;20.50;83.50
52036;DHT22;38046;49.448;32.074;2022-07-23T01:59:26;20.40;83.40
52036;DHT22;38046;49.448;32.074;2022-07-23T02:01:52;20.40;83.40
52036;DHT22;38046;49.448;32.074;2022-07-23T02:04:22;20.40;83.50
52036;DHT22;38046;49.448;32.074;2022-07-23T02:06:48;20.40;83.60
52036;DHT22;38046;49.448;32.074;2022-07-23T02:09:14;20.40;83.70
52036;DHT22;38046;49.448;32.074;2022-07-23T02:11:40;20.40;83.60
52036;DHT22;38046;49.448;32.074;2022-07-23T02:14:05;20.40;83.50
52036;DHT22;38046;49.448;32.074;2022-07-23T02:16:31;20.40;83.60
52036;DHT22;38046;49.448;32.074;2022-07-23T02:18:57;20.30;83.70
52036;DHT22;38046;49.448;32.074;2022-07-23T02:21:22;20.30;83.80
52036;DHT22;38046;49.448;32.074;2022-07-23T02:23:48;20.30;84.00
52036;DHT22;38046;49.448;32.074;2022-07-23T02:26:14;20.30;83.90
52036;DHT22;38046;49.448;32.074;2022-07-23T02:28:40;20.30;84.10
52036;DHT22;38046;49.448;32.074;2022-07-23T02:31:05;20.30;84.10
52036;DHT22;38046;49.448;32.074;2022-07-23T02:33:32;20.30;84.20
52036;DHT22;38046;49.448;32.074;2022-07-23T02:35:58;20.30;84.20
52036;DHT22;38046;49.448;32.074;2022-07-23T02:38:23;20.30;84.50
52036;DHT22;38046;49.448;32.074;2022-07-23T02:40:49;20.30;84.60
52036;DHT22;38046;49.448;32.074;2022-07-23T02:43:15;20.30;84.50
52036;DHT22;38046;49.448;32.074;2022-07-23T02:45:40;20.30;84.50
52036;DHT22;38046;49.448;32.074;2022-07-23T02:48:06;20.30;84.50
52036;DHT22;38046;49.448;32.074;2022-07-23T02:50:32;20.30;84.40
52036;DHT22;38046;49.448;32.074;2022-07-23T02:52:57;20.30;85.20
52036;DHT22;38046;49.448;32.074;2022-07-23T02:55:23;20.30;84.40
52036;DHT22;38046;49.448;32.074;2022-07-23T02:57:49;20.40;84.60
52036;DHT22;38046;49.448;32.074;2022-07-23T03:00:15;20.40;84.60
52036;DHT22;38046;49.448;32.074;2022-07-23T03:02:40;20.40;84.40
52036;DHT22;38046;49.448;32.074;2022-07-23T03:05:06;20.40;84.10
52036;DHT22;38046;49.448;32.074;2022-07-23T03:07:32;20.50;83.80
52036;DHT22;38046;49.448;32.074;2022-07-23T03:09:58;20.50;83.60
52036;DHT22;38046;49.448;32.074;2022-07-23T03:12:23;20.50;83.60
52036;DHT22;38046;49.448;32.074;2022-07-23T03:14:49;20.60;83.50
52036;DHT22;38046;49.448;32.074;2022-07-23T03:17:15;20.60;83.40
52036;DHT22;38046;49.448;32.074;2022-07-23T03:19:41;20.60;83.00
52036;DHT22;38046;49.448;32.074;2022-07-23T03:22:07;20.70;82.90
52036;DHT22;38046;49.448;32.074;2022-07-23T03:24:33;20.80;82.90
52036;DHT22;38046;49.448;32.074;2022-07-23T03:27:17;20.90;82.90
52036;DHT22;38046;49.448;32.074;2022-07-23T03:29:42;21.00;82.90
52036;DHT22;38046;49.448;32.074;2022-07-23T03:32:08;21.10;82.90
52036;DHT22;38046;49.448;32.074;2022-07-23T03:34:34;21.20;83.10
52036;DHT22;38046;49.448;32.074;2022-07-23T03:36:59;21.30;83.10
52036;DHT22;38046;49.448;32.074;2022-07-23T03:39:25;21.40;83.00
52036;DHT22;38046;49.448;32.074;2022-07-23T03:41:51;21.60;83.40
52036;DHT22;38046;49.448;32.074;2022-07-23T03:44:16;21.80;83.60
52036;DHT22;38046;49.448;32.074;2022-07-23T03:46:42;22.00;84.60
52036;DHT22;38046;49.448;32.074;2022-07-23T03:49:07;22.30;83.90
52036;DHT22;38046;49.448;32.074;2022-07-23T03:51:33;22.60;83.40
52036;DHT22;38046;49.448;32.074;2022-07-23T03:53:58;22.90;82.70
52036;DHT22;38046;49.448;32.074;2022-07-23T03:56:24;23.30;81.60
52036;DHT22;38046;49.448;32.074;2022-07-23T03:58:51;23.90;80.40
52036;DHT22;38046;49.448;32.074;2022-07-23T04:01:17;24.50;79.10
52036;DHT22;38046;49.448;32.074;2022-07-23T04:03:42;25.20;77.20
52036;DHT22;38046;49.448;32.074;2022-07-23T04:06:08;26.00;74.90
52036;DHT22;38046;49.448;32.074;2022-07-23T04:08:34;26.70;73.20
52036;DHT22;38046;49.448;32.074;2022-07-23T04:10:59;27.50;71.10
52036;DHT22;38046;49.448;32.074;2022-07-23T04:13:25;28.20;69.30
52036;DHT22;38046;49.448;32.074;2022-07-23T04:15:51;28.80;67.80
52036;DHT22;38046;49.448;32.074;2022-07-23T04:18:17;29.40;66.10
52036;DHT22;38046;49.448;32.074;2022-07-23T04:20:44;30.00;65.10
52036;DHT22;38046;49.448;32.074;2022-07-23T04:23:09;30.50;63.70
52036;DHT22;38046;49.448;32.074;2022-07-23T04:25:35;31.10;62.70
52036;DHT22;38046;49.448;32.074;2022-07-23T04:28:01;31.60;61.20
52036;DHT22;38046;49.448;32.074;2022-07-23T04:30:27;32.00;60.10
52036;DHT22;38046;49.448;32.074;2022-07-23T04:32:52;32.40;59.20
52036;DHT22;38046;49.448;32.074;2022-07-23T04:35:18;32.80;58.10
52036;DHT22;38046;49.448;32.074;2022-07-23T04:37:44;33.20;57.80
52036;DHT22;38046;49.448;32.074;2022-07-23T04:40:10;33.60;57.10
52036;DHT22;38046;49.448;32.074;2022-07-23T04:42:36;33.80;56.10
52036;DHT22;38046;49.448;32.074;2022-07-23T04:45:02;34.10;55.70
52036;DHT22;38046;49.448;32.074;2022-07-23T04:47:29;34.40;55.20
52036;DHT22;38046;49.448;32.074;2022-07-23T04:49:56;34.70;54.50
52036;DHT22;38046;49.448;32.074;2022-07-23T04:52:21;34.90;54.10
52036;DHT22;38046;49.448;32.074;2022-07-23T04:54:47;35.20;53.40
52036;DHT22;38046;49.448;32.074;2022-07-23T04:57:12;35.40;53.10
52036;DHT22;38046;49.448;32.074;2022-07-23T04:59:38;35.70;52.30
52036;DHT22;38046;49.448;32.074;2022-07-23T05:02:04;35.80;51.90
52036;DHT22;38046;49.448;32.074;2022-07-23T05:04:29;36.00;51.80
52036;DHT22;38046;49.448;32.074;2022-07-23T05:06:57;36.10;51.50
52036;DHT22;38046;49.448;32.074;2022-07-23T05:09:22;36.20;51.00
52036;DHT22;38046;49.448;32.074;2022-07-23T05:11:48;36.40;50.80
52036;DHT22;38046;49.448;32.074;2022-07-23T05:14:14;36.50;50.40
52036;DHT22;38046;49.448;32.074;2022-07-23T05:16:39;36.70;50.30
52036;DHT22;38046;49.448;32.074;2022-07-23T05:19:05;36.80;50.00
52036;DHT22;38046;49.448;32.074;2022-07-23T05:21:31;36.90;49.80
52036;DHT22;38046;49.448;32.074;2022-07-23T05:23:57;36.90;49.70
52036;DHT22;38046;49.448;32.074;2022-07-23T05:26:22;37.00;49.30
52036;DHT22;38046;49.448;32.074;2022-07-23T05:28:48;37.00;48.40
52036;DHT22;38046;49.448;32.074;2022-07-23T05:31:13;36.90;47.50
52036;DHT22;38046;49.448;32.074;2022-07-23T05:33:39;36.60;47.10
52036;DHT22;38046;49.448;32.074;2022-07-23T05:36:05;36.10;47.30
52036;DHT22;38046;49.448;32.074;2022-07-23T05:38:32;35.40;47.80
52036;DHT22;38046;49.448;32.074;2022-07-23T05:40:58;34.50;48.30
52036;DHT22;38046;49.448;32.074;2022-07-23T05:43:24;33.70;49.30
52036;DHT22;38046;49.448;32.074;2022-07-23T05:45:50;32.80;50.20
52036;DHT22;38046;49.448;32.074;2022-07-23T05:48:15;31.90;51.10
52036;DHT22;38046;49.448;32.074;2022-07-23T05:50:41;31.20;52.00
52036;DHT22;38046;49.448;32.074;2022-07-23T05:53:07;30.60;52.80
52036;DHT22;38046;49.448;32.074;2022-07-23T05:55:32;30.00;53.60
52036;DHT22;38046;49.448;32.074;2022-07-23T05:57:59;29.50;54.40
52036;DHT22;38046;49.448;32.074;2022-07-23T06:00:26;29.00;55.00
52036;DHT22;38046;49.448;32.074;2022-07-23T06:02:53;28.70;55.70
52036;DHT22;38046;49.448;32.074;2022-07-23T06:05:18;28.40;56.30
52036;DHT22;38046;49.448;32.074;2022-07-23T06:07:44;28.10;56.80
52036;DHT22;38046;49.448;32.074;2022-07-23T06:10:10;27.90;57.30
52036;DHT22;38046;49.448;32.074;2022-07-23T06:12:36;27.70;57.70
52036;DHT22;38046;49.448;32.074;2022-07-23T06:15:03;27.50;58.10
52036;DHT22;38046;49.448;32.074;2022-07-23T06:17:28;27.40;58.50
52036;DHT22;38046;49.448;32.074;2022-07-23T06:19:55;27.20;58.60
52036;DHT22;38046;49.448;32.074;2022-07-23T06:22:21;27.00;59.10
52036;DHT22;38046;49.448;32.074;2022-07-23T06:24:48;26.90;59.40
52036;DHT22;38046;49.448;32.074;2022-07-23T06:27:13;26.80;59.70
52036;DHT22;38046;49.448;32.074;2022-07-23T06:29:39;26.60;60.00
52036;DHT22;38046;49.448;32.074;2022-07-23T06:32:06;26.60;60.40
52036;DHT22;38046;49.448;32.074;2022-07-23T06:34:32;26.50;60.70
52036;DHT22;38046;49.448;32.074;2022-07-23T06:36:59;26.50;60.90
52036;DHT22;38046;49.448;32.074;2022-07-23T06:39:24;26.40;61.30
52036;DHT22;38046;49.448;32.074;2022-07-23T06:41:50;26.30;61.40
52036;DHT22;38046;49.448;32.074;2022-07-23T06:44:16;26.20;61.70
52036;DHT22;38046;49.448;32.074;2022-07-23T06:46:42;26.20;61.90
52036;DHT22;38046;49.448;32.074;2022-07-23T06:49:07;26.10;62.10
52036;DHT22;38046;49.448;32.074;2022-07-23T06:51:33;26.00;63.00
52036;DHT22;38046;49.448;32.074;2022-07-23T06:53:59;26.00;62.60
52036;DHT22;38046;49.448;32.074;2022-07-23T06:56:25;26.00;62.80
52036;DHT22;38046;49.448;32.074;2022-07-23T06:58:51;25.90;63.10
52036;DHT22;38046;49.448;32.074;2022-07-23T07:01:17;25.90;63.20
52036;DHT22;38046;49.448;32.074;2022-07-23T07:03:42;25.80;63.30
52036;DHT22;38046;49.448;32.074;2022-07-23T07:06:08;25.80;63.60
52036;DHT22;38046;49.448;32.074;2022-07-23T07:08:34;25.80;63.70
52036;DHT22;38046;49.448;32.074;2022-07-23T07:11:00;25.80;63.80
52036;DHT22;38046;49.448;32.074;2022-07-23T07:13:25;25.80;64.00
52036;DHT22;38046;49.448;32.074;2022-07-23T07:15:51;25.70;64.20
52036;DHT22;38046;49.448;32.074;2022-07-23T07:18:17;25.70;64.40
52036;DHT22;38046;49.448;32.074;2022-07-23T07:20:42;25.70;64.60
52036;DHT22;38046;49.448;32.074;2022-07-23T07:23:08;25.70;64.60
52036;DHT22;38046;49.448;32.074;2022-07-23T07:25:34;25.70;64.50
52036;DHT22;38046;49.448;32.074;2022-07-23T07:28:00;25.70;64.60
52036;DHT22;38046;49.448;32.074;2022-07-23T07:30:26;25.70;64.70
52036;DHT22;38046;49.448;32.074;2022-07-23T07:32:51;25.70;64.80
52036;DHT22;38046;49.448;32.074;2022-07-23T07:35:17;25.70;65.10
52036;DHT22;38046;49.448;32.074;2022-07-23T07:37:42;25.70;65.20
52036;DHT22;38046;49.448;32.074;2022-07-23T07:40:08;25.70;65.40
52036;DHT22;38046;49.448;32.074;2022-07-23T07:42:34;25.70;65.40
52036;DHT22;38046;49.448;32.074;2022-07-23T07:45:00;25.70;65.50
52036;DHT22;38046;49.448;32.074;2022-07-23T07:47:26;25.70;65.60
52036;DHT22;38046;49.448;32.074;2022-07-23T07:49:52;25.70;65.70
52036;DHT22;38046;49.448;32.074;2022-07-23T07:52:17;25.80;65.90
52036;DHT22;38046;49.448;32.074;2022-07-23T07:54:43;25.80;65.70
52036;DHT22;38046;49.448;32.074;2022-07-23T07:57:09;25.80;65.50
52036;DHT22;38046;49.448;32.074;2022-07-23T07:59:35;25.80;65.20
52036;DHT22;38046;49.448;32.074;2022-07-23T08:02:01;25.80;65.30
52036;DHT22;38046;49.448;32.074;2022-07-23T08:04:26;25.80;65.80
52036;DHT22;38046;49.448;32.074;2022-07-23T08:06:52;25.80;65.20
52036;DHT22;38046;49.448;32.074;2022-07-23T08:09:18;25.80;65.20
52036;DHT22;38046;49.448;32.074;2022-07-23T08:11:43;25.80;65.20
52036;DHT22;38046;49.448;32.074;2022-07-23T08:14:09;25.80;65.30
52036;DHT22;38046;49.448;32.074;2022-07-23T08:16:36;25.80;65.50
52036;DHT22;38046;49.448;32.074;2022-07-23T08:19:02;25.80;65.40
52036;DHT22;38046;49.448;32.074;2022-07-23T08:21:27;25.80;65.60
52036;DHT22;38046;49.448;32.074;2022-07-23T08:23:53;25.80;65.30
52036;DHT22;38046;49.448;32.074;2022-07-23T08:26:19;25.80;65.40
52036;DHT22;38046;49.448;32.074;2022-07-23T08:28:44;25.80;65.30
52036;DHT22;38046;49.448;32.074;2022-07-23T08:31:10;25.80;65.40
52036;DHT22;38046;49.448;32.074;2022-07-23T08:33:37;25.80;65.60
52036;DHT22;38046;49.448;32.074;2022-07-23T08:36:04;25.80;65.60
52036;DHT22;38046;49.448;32.074;2022-07-23T08:38:30;25.80;65.50
52036;DHT22;38046;49.448;32.074;2022-07-23T08:40:56;25.80;65.40
52036;DHT22;38046;49.448;32.074;2022-07-23T08:43:27;25.80;65.50
52036;DHT22;38046;49.448;32.074;2022-07-23T08:45:55;25.80;65.40
52036;DHT22;38046;49.448;32.074;2022-07-23T08:48:25;25.80;65.70
52036;DHT22;38046;49.448;32.074;2022-07-23T08:50:53;25.80;65.70
52036;DHT22;38046;49.448;32.074;2022-07-23T08:53:21;25.80;65.70
52036;DHT22;38046;49.448;32.074;2022-07-23T08:55:49;25.80;65.60
52036;DHT22;38046;49.448;32.074;2022-07-23T08:58:16;25.80;65.80
52036;DHT22;38046;49.448;32.074;2022-07-23T09:00:42;25.70;65.30
52036;DHT22;38046;49.448;32.074;2022-07-23T09:03:15;25.70;65.30
52036;DHT22;38046;49.448;32.074;2022-07-23T09:05:41;25.70;65.40
52036;DHT22;38046;49.448;32.074;2022-07-23T09:08:12;25.60;65.30
52036;DHT22;38046;49.448;32.074;2022-07-23T09:11:02;25.60;65.40
52036;DHT22;38046;49.448;32.074;2022-07-23T09:13:32;25.60;65.50
52036;DHT22;38046;49.448;32.074;2022-07-23T09:16:02;25.60;65.30
52036;DHT22;38046;49.448;32.074;2022-07-23T09:18:34;25.60;65.30
52036;DHT22;38046;49.448;32.074;2022-07-23T09:21:16;25.50;65.40
52036;DHT22;38046;49.448;32.074;2022-07-23T09:23:44;25.50;65.60
52036;DHT22;38046;49.448;32.074;2022-07-23T09:26:25;25.50;65.50
52036;DHT22;38046;49.448;32.074;2022-07-23T09:28:56;25.50;65.70
52036;DHT22;38046;49.448;32.074;2022-07-23T09:31:23;25.50;65.30
52036;DHT22;38046;49.448;32.074;2022-07-23T09:33:49;25.50;65.10
52036;DHT22;38046;49.448;32.074;2022-07-23T09:36:15;25.50;65.30
52036;DHT22;38046;49.448;32.074;2022-07-23T09:38:48;25.50;65.30
52036;DHT22;38046;49.448;32.074;2022-07-23T09:41:15;25.60;65.50
52036;DHT22;38046;49.448;32.074;2022-07-23T09:43:41;25.60;66.10
52036;DHT22;38046;49.448;32.074;2022-07-23T09:46:27;25.60;64.90
52036;DHT22;38046;49.448;32.074;2022-07-23T09:49:11;25.70;64.70
52036;DHT22;38046;49.448;32.074;2022-07-23T09:51:54;25.80;64.20
52036;DHT22;38046;49.448;32.074;2022-07-23T09:54:44;25.80;64.10
52036;DHT22;38046;49.448;32.074;2022-07-23T09:57:11;25.80;64.50
52036;DHT22;38046;49.448;32.074;2022-07-23T09:59:42;25.80;63.70
52036;DHT22;38046;49.448;32.074;2022-07-23T10:02:10;25.70;64.00
52036;DHT22;38046;49.448;32.074;2022-07-23T10:04:37;25.70;64.00
52036;DHT22;38046;49.448;32.074;2022-07-23T10:07:05;25.70;64.00
52036;DHT22;38046;49.448;32.074;2022-07-23T10:09:34;25.70;64.20
52036;DHT22;38046;49.448;32.074;2022-07-23T10:12:02;25.70;64.40
52036;DHT22;38046;49.448;32.074;2022-07-23T10:14:34;25.80;64.20
52036;DHT22;38046;49.448;32.074;2022-07-23T10:17:03;25.70;63.90
52036;DHT22;38046;49.448;32.074;2022-07-23T10:19:30;25.70;63.90
52036;DHT22;38046;49.448;32.074;2022-07-23T10:22:00;25.80;64.20
52036;DHT22;38046;49.448;32.074;2022-07-23T10:27:49;25.80;65.00
52036;DHT22;38046;49.448;32.074;2022-07-23T10:30:18;25.80;64.80
52036;DHT22;38046;49.448;32.074;2022-07-23T10:32:48;25.80;64.40
52036;DHT22;38046;49.448;32.074;2022-07-23T10:35:23;25.80;64.40
52036;DHT22;38046;49.448;32.074;2022-07-23T10:37:56;25.80;64.70
52036;DHT22;38046;49.448;32.074;2022-07-23T10:40:25;25.90;64.60
52036;DHT22;38046;49.448;32.074;2022-07-23T10:42:52;25.90;64.40
52036;DHT22;38046;49.448;32.074;2022-07-23T10:45:25;25.90;64.10
52036;DHT22;38046;49.448;32.074;2022-07-23T10:47:51;25.90;64.30
52036;DHT22;38046;49.448;32.074;2022-07-23T10:50:29;25.90;64.40
52036;DHT22;38046;49.448;32.074;2022-07-23T10:57:58;25.90;64.70
52036;DHT22;38046;49.448;32.074;2022-07-23T11:00:28;26.00;65.10
52036;DHT22;38046;49.448;32.074;2022-07-23T11:02:57;26.00;65.00
52036;DHT22;38046;49.448;32.074;2022-07-23T11:05:26;26.00;64.70
52036;DHT22;38046;49.448;32.074;2022-07-23T11:10:38;26.00;64.30
52036;DHT22;38046;49.448;32.074;2022-07-23T11:16:04;26.00;64.60
52036;DHT22;38046;49.448;32.074;2022-07-23T11:26:47;25.90;64.60
52036;DHT22;38046;49.448;32.074;2022-07-23T11:35:28;25.90;64.00
52036;DHT22;38046;49.448;32.074;2022-07-23T11:38:23;25.90;64.20
52036;DHT22;38046;49.448;32.074;2022-07-23T11:40:50;26.00;64.40
52036;DHT22;38046;49.448;32.074;2022-07-23T11:43:16;26.00;64.60
52036;DHT22;38046;49.448;32.074;2022-07-23T11:45:48;26.00;64.70
52036;DHT22;38046;49.448;32.074;2022-07-23T11:48:25;26.00;64.90
52036;DHT22;38046;49.448;32.074;2022-07-23T11:50:52;26.00;64.60
52036;DHT22;38046;49.448;32.074;2022-07-23T11:53:29;26.10;64.70
52036;DHT22;38046;49.448;32.074;2022-07-23T11:56:08;26.10;64.60
52036;DHT22;38046;49.448;32.074;2022-07-23T11:58:35;26.00;64.50
52036;DHT22;38046;49.448;32.074;2022-07-23T12:01:01;26.10;64.80
52036;DHT22;38046;49.448;32.074;2022-07-23T12:03:27;26.10;65.20
52036;DHT22;38046;49.448;32.074;2022-07-23T12:05:57;26.10;65.20
52036;DHT22;38046;49.448;32.074;2022-07-23T12:08:22;26.10;64.90
52036;DHT22;38046;49.448;32.074;2022-07-23T12:10:48;26.10;65.10
52036;DHT22;38046;49.448;32.074;2022-07-23T12:13:19;26.10;65.20
52036;DHT22;38046;49.448;32.074;2022-07-23T12:15:48;26.10;64.90
52036;DHT22;38046;49.448;32.074;2022-07-23T12:18:17;26.10;64.90
52036;DHT22;38046;49.448;32.074;2022-07-23T12:20:46;26.10;65.00
52036;DHT22;38046;49.448;32.074;2022-07-23T12:23:14;26.10;64.80
52036;DHT22;38046;49.448;32.074;2022-07-23T12:25:42;26.10;64.50
52036;DHT22;38046;49.448;32.074;2022-07-23T12:30:58;26.20;64.00
52036;DHT22;38046;49.448;32.074;2022-07-23T12:33:26;26.20;64.40
52036;DHT22;38046;49.448;32.074;2022-07-23T12:35:53;26.20;64.30
52036;DHT22;38046;49.448;32.074;2022-07-23T12:38:21;26.20;64.20
52036;DHT22;38046;49.448;32.074;2022-07-23T12:40:49;26.20;64.20
52036;DHT22;38046;49.448;32.074;2022-07-23T12:43:27;26.10;64.20
52036;DHT22;38046;49.448;32.074;2022-07-23T12:53:52;26.20;65.00
52036;DHT22;38046;49.448;32.074;2022-07-23T12:56:26;26.20;64.90
52036;DHT22;38046;49.448;32.074;2022-07-23T12:58:55;26.20;65.00
52036;DHT22;38046;49.448;32.074;2022-07-23T13:01:23;26.20;65.10
52036;DHT22;38046;49.448;32.074;2022-07-23T13:06:43;26.20;65.40
52036;DHT22;38046;49.448;32.074;2022-07-23T13:09:11;26.20;65.20
52036;DHT22;38046;49.448;32.074;2022-07-23T13:11:38;26.20;65.00
52036;DHT22;38046;49.448;32.074;2022-07-23T13:14:04;26.20;64.80
52036;DHT22;38046;49.448;32.074;2022-07-23T13:16:31;26.20;64.80
52036;DHT22;38046;49.448;32.074;2022-07-23T13:18:58;26.20;64.70
52036;DHT22;38046;49.448;32.074;2022-07-23T13:21:24;26.20;64.60
52036;DHT22;38046;49.448;32.074;2022-07-23T13:23:50;26.20;64.50
52036;DHT22;38046;49.448;32.074;2022-07-23T13:26:16;26.30;64.70
52036;DHT22;38046;49.448;32.074;2022-07-23T13:28:42;26.20;64.90
52036;DHT22;38046;49.448;32.074;2022-07-23T13:31:08;26.20;65.00
52036;DHT22;38046;49.448;32.074;2022-07-23T13:33:34;26.20;65.00
52036;DHT22;38046;49.448;32.074;2022-07-23T13:36:00;26.20;64.90
52036;DHT22;38046;49.448;32.074;2022-07-23T13:38:26;26.20;64.70
52036;DHT22;38046;49.448;32.074;2022-07-23T13:40:53;26.20;64.30
52036;DHT22;38046;49.448;32.074;2022-07-23T13:43:21;26.20;64.40
52036;DHT22;38046;49.448;32.074;2022-07-23T13:45:47;26.30;64.40
52036;DHT22;38046;49.448;32.074;2022-07-23T13:48:14;26.30;64.40
52036;DHT22;38046;49.448;32.074;2022-07-23T13:50:40;26.30;64.60
52036;DHT22;38046;49.448;32.074;2022-07-23T13:53:12;26.30;64.60
52036;DHT22;38046;49.448;32.074;2022-07-23T13:55:40;26.30;64.50
52036;DHT22;38046;49.448;32.074;2022-07-23T13:58:07;26.30;64.30
52036;DHT22;38046;49.448;32.074;2022-07-23T14:00:34;26.30;64.20
52036;DHT22;38046;49.448;32.074;2022-07-23T14:03:00;26.30;64.30
52036;DHT22;38046;49.448;32.074;2022-07-23T14:05:27;26.30;64.20
52036;DHT22;38046;49.448;32.074;2022-07-23T14:07:52;26.30;64.40
52036;DHT22;38046;49.448;32.074;2022-07-23T14:10:20;26.30;64.80
52036;DHT22;38046;49.448;32.074;2022-07-23T14:12:47;26.30;64.80
52036;DHT22;38046;49.448;32.074;2022-07-23T14:15:13;26.40;64.40
52036;DHT22;38046;49.448;32.074;2022-07-23T14:17:40;26.30;64.40
52036;DHT22;38046;49.448;32.074;2022-07-23T14:20:08;26.40;64.50
52036;DHT22;38046;49.448;32.074;2022-07-23T14:22:34;26.30;64.90
52036;DHT22;38046;49.448;32.074;2022-07-23T14:25:00;26.30;64.80
52036;DHT22;38046;49.448;32.074;2022-07-23T14:27:27;26.30;64.80
52036;DHT22;38046;49.448;32.074;2022-07-23T14:29:53;26.20;65.10
52036;DHT22;38046;49.448;32.074;2022-07-23T14:32:19;26.20;65.00
52036;DHT22;38046;49.448;32.074;2022-07-23T14:34:45;26.20;65.00
52036;DHT22;38046;49.448;32.074;2022-07-23T14:37:11;26.20;65.00
52036;DHT22;38046;49.448;32.074;2022-07-23T14:39:38;26.10;64.90
52036;DHT22;38046;49.448;32.074;2022-07-23T14:42:05;26.10;65.30
52036;DHT22;38046;49.448;32.074;2022-07-23T14:44:30;26.10;64.80
52036;DHT22;38046;49.448;32.074;2022-07-23T14:46:56;26.10;64.80
52036;DHT22;38046;49.448;32.074;2022-07-23T14:49:22;26.10;65.00
52036;DHT22;38046;49.448;32.074;2022-07-23T14:51:47;26.00;65.00
52036;DHT22;38046;49.448;32.074;2022-07-23T14:54:13;26.10;65.10
52036;DHT22;38046;49.448;32.074;2022-07-23T14:56:41;26.00;64.80
52036;DHT22;38046;49.448;32.074;2022-07-23T14:59:07;26.00;64.60
52036;DHT22;38046;49.448;32.074;2022-07-23T15:01:33;26.00;64.60
52036;DHT22;38046;49.448;32.074;2022-07-23T15:03:59;26.00;64.80
52036;DHT22;38046;49.448;32.074;2022-07-23T15:06:25;26.00;65.10
52036;DHT22;38046;49.448;32.074;2022-07-23T15:08:51;26.00;65.10
52036;DHT22;38046;49.448;32.074;2022-07-23T15:11:16;26.00;65.10
52036;DHT22;38046;49.448;32.074;2022-07-23T15:13:42;26.00;65.00
52036;DHT22;38046;49.448;32.074;2022-07-23T15:16:08;26.00;65.10
52036;DHT22;38046;49.448;32.074;2022-07-23T15:18:34;26.00;65.10
52036;DHT22;38046;49.448;32.074;2022-07-23T15:21:01;26.00;65.40
52036;DHT22;38046;49.448;32.074;2022-07-23T15:23:27;26.00;65.60
52036;DHT22;38046;49.448;32.074;2022-07-23T15:25:54;25.90;65.40
52036;DHT22;38046;49.448;32.074;2022-07-23T15:28:21;26.00;65.20
52036;DHT22;38046;49.448;32.074;2022-07-23T15:30:47;25.90;65.10
52036;DHT22;38046;49.448;32.074;2022-07-23T15:33:12;25.90;64.90
52036;DHT22;38046;49.448;32.074;2022-07-23T15:35:38;25.90;64.60
52036;DHT22;38046;49.448;32.074;2022-07-23T15:38:04;25.90;64.40
52036;DHT22;38046;49.448;32.074;2022-07-23T15:40:29;25.90;64.40
52036;DHT22;38046;49.448;32.074;2022-07-23T15:42:55;25.90;64.30
52036;DHT22;38046;49.448;32.074;2022-07-23T15:45:21;25.90;64.30
52036;DHT22;38046;49.448;32.074;2022-07-23T15:47:48;25.90;64.40
52036;DHT22;38046;49.448;32.074;2022-07-23T15:50:14;25.90;64.40
52036;DHT22;38046;49.448;32.074;2022-07-23T15:52:40;25.90;64.20
52036;DHT22;38046;49.448;32.074;2022-07-23T15:55:07;25.90;64.40